sensor_id;sensor_type;location;lat;lon;timestamp;P1;durP1;ratioP1;P2;durP2;ratioP2
37449;SDS011;23309;52.582;13.406;2022-07-05T00:00:13;4.53;;;3.33;;
37449;SDS011;23309;52.582;13.406;2022-07-05T00:02:41;3.47;;;3.17;;
37449;SDS011;23309;52.582;13.406;2022-07-05T00:05:07;6.30;;;3.37;;
37449;SDS011;23309;52.582;13.406;2022-07-05T00:07:33;5.37;;;3.37;;
37449;SDS011;23309;52.582;13.406;2022-07-05T00:09:59;4.97;;;3.63;;
37449;SDS011;23309;52.582;13.406;2022-07-05T00:12:30;5.73;;;3.53;;
37449;SDS011;23309;52.582;13.406;2022-07-05T00:14:57;4.97;;;3.47;;
37449;SDS011;23309;52.582;13.406;2022-07-05T00:17:24;5.27;;;3.80;;
37449;SDS011;23309;52.582;13.406;2022-07-05T00:19:50;4.20;;;3.30;;
37449;SDS011;23309;52.582;13.406;2022-07-05T00:22:17;6.07;;;3.30;;
37449;SDS011;23309;52.582;13.406;2022-07-05T00:24:43;6.80;;;3.03;;
37449;SDS011;23309;52.582;13.406;2022-07-05T00:27:09;6.60;;;3.37;;
37449;SDS011;23309;52.582;13.406;2022-07-05T00:29:38;6.60;;;3.53;;
37449;SDS011;23309;52.582;13.406;2022-07-05T00:32:04;5.47;;;3.60;;
37449;SDS011;23309;52.582;13.406;2022-07-05T00:34:31;4.80;;;3.23;;
37449;SDS011;23309;52.582;13.406;2022-07-05T00:36:57;4.10;;;3.30;;
37449;SDS011;23309;52.582;13.406;2022-07-05T00:39:23;5.50;;;3.80;;
37449;SDS011;23309;52.582;13.406;2022-07-05T00:41:49;6.00;;;3.17;;
37449;SDS011;23309;52.582;13.406;2022-07-05T00:44:16;6.10;;;3.30;;
37449;SDS011;23309;52.582;13.406;2022-07-05T00:46:44;7.77;;;4.03;;
37449;SDS011;23309;52.582;13.406;2022-07-05T00:49:10;4.60;;;3.40;;
37449;SDS011;23309;52.582;13.406;2022-07-05T00:51:37;7.07;;;3.90;;
37449;SDS011;23309;52.582;13.406;2022-07-05T00:54:05;5.17;;;3.27;;
37449;SDS011;23309;52.582;13.406;2022-07-05T00:56:32;5.93;;;3.00;;
37449;SDS011;23309;52.582;13.406;2022-07-05T00:58:58;5.27;;;3.70;;
37449;SDS011;23309;52.582;13.406;2022-07-05T01:01:25;6.30;;;3.30;;
37449;SDS011;23309;52.582;13.406;2022-07-05T01:03:55;4.37;;;3.20;;
37449;SDS011;23309;52.582;13.406;2022-07-05T01:06:21;3.80;;;3.20;;
37449;SDS011;23309;52.582;13.406;2022-07-05T01:08:48;6.87;;;3.23;;
37449;SDS011;23309;52.582;13.406;2022-07-05T01:11:15;4.70;;;2.97;;
37449;SDS011;23309;52.582;13.406;2022-07-05T01:13:41;10.57;;;3.40;;
37449;SDS011;23309;52.582;13.406;2022-07-05T01:16:07;4.27;;;2.53;;
37449;SDS011;23309;52.582;13.406;2022-07-05T01:18:34;3.73;;;2.30;;
37449;SDS011;23309;52.582;13.406;2022-07-05T01:21:04;4.23;;;2.53;;
37449;SDS011;23309;52.582;13.406;2022-07-05T01:23:33;3.93;;;2.30;;
37449;SDS011;23309;52.582;13.406;2022-07-05T01:26:00;3.87;;;2.20;;
37449;SDS011;23309;52.582;13.406;2022-07-05T01:28:27;4.30;;;2.40;;
37449;SDS011;23309;52.582;13.406;2022-07-05T01:30:54;5.20;;;2.43;;
37449;SDS011;23309;52.582;13.406;2022-07-05T01:33:26;4.70;;;2.50;;
37449;SDS011;23309;52.582;13.406;2022-07-05T01:35:53;2.67;;;2.47;;
37449;SDS011;23309;52.582;13.406;2022-07-05T01:38:19;3.07;;;2.50;;
37449;SDS011;23309;52.582;13.406;2022-07-05T01:40:48;4.17;;;2.60;;
37449;SDS011;23309;52.582;13.406;2022-07-05T01:43:14;3.80;;;2.17;;
37449;SDS011;23309;52.582;13.406;2022-07-05T01:45:40;2.93;;;2.30;;
37449;SDS011;23309;52.582;13.406;2022-07-05T01:48:08;4.10;;;2.37;;
37449;SDS011;23309;52.582;13.406;2022-07-05T01:50:38;2.63;;;1.90;;
37449;SDS011;23309;52.582;13.406;2022-07-05T01:53:08;3.17;;;2.03;;
37449;SDS011;23309;52.582;13.406;2022-07-05T01:55:39;2.20;;;1.90;;
37449;SDS011;23309;52.582;13.406;2022-07-05T01:58:08;6.33;;;2.07;;
37449;SDS011;23309;52.582;13.406;2022-07-05T02:00:41;3.53;;;2.03;;
37449;SDS011;23309;52.582;13.406;2022-07-05T02:03:09;2.77;;;2.10;;
37449;SDS011;23309;52.582;13.406;2022-07-05T02:05:35;5.20;;;2.27;;
37449;SDS011;23309;52.582;13.406;2022-07-05T02:08:02;8.20;;;2.23;;
37449;SDS011;23309;52.582;13.406;2022-07-05T02:10:28;2.17;;;1.97;;
37449;SDS011;23309;52.582;13.406;2022-07-05T02:12:55;5.30;;;2.33;;
37449;SDS011;23309;52.582;13.406;2022-07-05T02:15:24;2.90;;;2.10;;
37449;SDS011;23309;52.582;13.406;2022-07-05T02:17:50;3.47;;;1.93;;
37449;SDS011;23309;52.582;13.406;2022-07-05T02:20:16;3.50;;;2.00;;
37449;SDS011;23309;52.582;13.406;2022-07-05T02:22:42;4.00;;;2.37;;
37449;SDS011;23309;52.582;13.406;2022-07-05T02:25:08;3.50;;;1.90;;
37449;SDS011;23309;52.582;13.406;2022-07-05T02:27:34;2.83;;;1.63;;
37449;SDS011;23309;52.582;13.406;2022-07-05T02:30:01;4.97;;;2.17;;
37449;SDS011;23309;52.582;13.406;2022-07-05T02:32:30;1.60;;;1.50;;
37449;SDS011;23309;52.582;13.406;2022-07-05T02:34:56;2.30;;;1.83;;
37449;SDS011;23309;52.582;13.406;2022-07-05T02:37:22;1.87;;;1.63;;
37449;SDS011;23309;52.582;13.406;2022-07-05T02:39:48;3.03;;;2.07;;
37449;SDS011;23309;52.582;13.406;2022-07-05T02:42:14;2.60;;;2.07;;
37449;SDS011;23309;52.582;13.406;2022-07-05T02:44:40;2.30;;;1.93;;
37449;SDS011;23309;52.582;13.406;2022-07-05T02:47:06;3.00;;;1.93;;
37449;SDS011;23309;52.582;13.406;2022-07-05T02:49:35;3.90;;;1.90;;
37449;SDS011;23309;52.582;13.406;2022-07-05T02:52:01;4.47;;;1.60;;
37449;SDS011;23309;52.582;13.406;2022-07-05T02:54:28;3.47;;;1.80;;
37449;SDS011;23309;52.582;13.406;2022-07-05T02:56:54;3.47;;;1.70;;
37449;SDS011;23309;52.582;13.406;2022-07-05T02:59:20;3.80;;;2.17;;
37449;SDS011;23309;52.582;13.406;2022-07-05T03:01:46;1.80;;;1.70;;
37449;SDS011;23309;52.582;13.406;2022-07-05T03:04:12;4.23;;;2.10;;
37449;SDS011;23309;52.582;13.406;2022-07-05T03:06:41;3.93;;;1.87;;
37449;SDS011;23309;52.582;13.406;2022-07-05T03:09:07;3.33;;;1.87;;
37449;SDS011;23309;52.582;13.406;2022-07-05T03:11:33;5.00;;;1.53;;
37449;SDS011;23309;52.582;13.406;2022-07-05T03:14:00;9.73;;;2.30;;
37449;SDS011;23309;52.582;13.406;2022-07-05T03:16:26;1.97;;;1.77;;
37449;SDS011;23309;52.582;13.406;2022-07-05T03:18:52;2.73;;;1.93;;
37449;SDS011;23309;52.582;13.406;2022-07-05T03:21:18;2.50;;;1.77;;
37449;SDS011;23309;52.582;13.406;2022-07-05T03:23:47;4.17;;;2.10;;
37449;SDS011;23309;52.582;13.406;2022-07-05T03:26:13;2.13;;;1.77;;
37449;SDS011;23309;52.582;13.406;2022-07-05T03:28:39;2.60;;;1.80;;
37449;SDS011;23309;52.582;13.406;2022-07-05T03:31:06;3.27;;;1.80;;
37449;SDS011;23309;52.582;13.406;2022-07-05T03:33:32;2.50;;;1.80;;
37449;SDS011;23309;52.582;13.406;2022-07-05T03:35:58;3.90;;;2.17;;
37449;SDS011;23309;52.582;13.406;2022-07-05T03:38:24;2.50;;;1.60;;
37449;SDS011;23309;52.582;13.406;2022-07-05T03:40:53;2.67;;;1.90;;
37449;SDS011;23309;52.582;13.406;2022-07-05T03:43:19;3.70;;;2.30;;
37449;SDS011;23309;52.582;13.406;2022-07-05T03:45:45;2.27;;;1.87;;
37449;SDS011;23309;52.582;13.406;2022-07-05T03:48:11;3.93;;;1.97;;
37449;SDS011;23309;52.582;13.406;2022-07-05T03:50:37;3.83;;;2.13;;
37449;SDS011;23309;52.582;13.406;2022-07-05T03:53:03;2.27;;;1.90;;
37449;SDS011;23309;52.582;13.406;2022-07-05T03:55:30;2.97;;;1.83;;
37449;SDS011;23309;52.582;13.406;2022-07-05T03:57:58;3.23;;;1.90;;
37449;SDS011;23309;52.582;13.406;2022-07-05T04:00:25;3.40;;;2.10;;
37449;SDS011;23309;52.582;13.406;2022-07-05T04:02:51;4.40;;;2.10;;
37449;SDS011;23309;52.582;13.406;2022-07-05T04:05:17;8.43;;;3.10;;
37449;SDS011;23309;52.582;13.406;2022-07-05T04:07:47;7.10;;;2.27;;
37449;SDS011;23309;52.582;13.406;2022-07-05T04:10:14;3.53;;;1.97;;
37449;SDS011;23309;52.582;13.406;2022-07-05T04:12:40;3.60;;;1.90;;
37449;SDS011;23309;52.582;13.406;2022-07-05T04:15:10;5.17;;;1.90;;
37449;SDS011;23309;52.582;13.406;2022-07-05T04:17:45;5.80;;;2.23;;
37449;SDS011;23309;52.582;13.406;2022-07-05T04:20:12;4.50;;;1.67;;
37449;SDS011;23309;52.582;13.406;2022-07-05T04:22:38;3.93;;;1.77;;
37449;SDS011;23309;52.582;13.406;2022-07-05T04:25:04;3.33;;;2.07;;
37449;SDS011;23309;52.582;13.406;2022-07-05T04:27:31;3.27;;;1.80;;
37449;SDS011;23309;52.582;13.406;2022-07-05T04:29:57;3.27;;;1.67;;
37449;SDS011;23309;52.582;13.406;2022-07-05T04:32:26;2.93;;;1.60;;
37449;SDS011;23309;52.582;13.406;2022-07-05T04:34:52;5.30;;;1.70;;
37449;SDS011;23309;52.582;13.406;2022-07-05T04:37:19;2.40;;;1.90;;
37449;SDS011;23309;52.582;13.406;2022-07-05T04:39:45;5.13;;;1.67;;
37449;SDS011;23309;52.582;13.406;2022-07-05T04:42:11;1.70;;;1.50;;
37449;SDS011;23309;52.582;13.406;2022-07-05T04:44:37;3.03;;;1.60;;
37449;SDS011;23309;52.582;13.406;2022-07-05T04:47:03;3.50;;;1.67;;
37449;SDS011;23309;52.582;13.406;2022-07-05T04:49:32;5.40;;;2.00;;
37449;SDS011;23309;52.582;13.406;2022-07-05T04:51:58;6.40;;;1.90;;
37449;SDS011;23309;52.582;13.406;2022-07-05T04:54:25;2.03;;;1.83;;
37449;SDS011;23309;52.582;13.406;2022-07-05T04:56:51;5.20;;;1.70;;
37449;SDS011;23309;52.582;13.406;2022-07-05T04:59:17;4.73;;;1.70;;
37449;SDS011;23309;52.582;13.406;2022-07-05T05:01:43;4.33;;;1.67;;
37449;SDS011;23309;52.582;13.406;2022-07-05T05:04:09;5.53;;;2.10;;
37449;SDS011;23309;52.582;13.406;2022-07-05T05:06:38;3.30;;;1.80;;
37449;SDS011;23309;52.582;13.406;2022-07-05T05:09:04;2.30;;;1.93;;
37449;SDS011;23309;52.582;13.406;2022-07-05T05:11:30;6.40;;;1.50;;
37449;SDS011;23309;52.582;13.406;2022-07-05T05:13:56;1.90;;;1.60;;
37449;SDS011;23309;52.582;13.406;2022-07-05T05:16:23;3.70;;;1.63;;
37449;SDS011;23309;52.582;13.406;2022-07-05T05:18:49;3.50;;;1.80;;
37449;SDS011;23309;52.582;13.406;2022-07-05T05:21:15;2.87;;;1.60;;
37449;SDS011;23309;52.582;13.406;2022-07-05T05:23:44;5.67;;;1.97;;
37449;SDS011;23309;52.582;13.406;2022-07-05T05:26:10;6.60;;;1.60;;
37449;SDS011;23309;52.582;13.406;2022-07-05T05:28:36;4.87;;;2.83;;
37449;SDS011;23309;52.582;13.406;2022-07-05T05:31:02;1.60;;;1.50;;
37449;SDS011;23309;52.582;13.406;2022-07-05T05:33:29;2.60;;;1.70;;
37449;SDS011;23309;52.582;13.406;2022-07-05T05:35:55;6.90;;;1.90;;
37449;SDS011;23309;52.582;13.406;2022-07-05T05:38:21;5.27;;;1.90;;
37449;SDS011;23309;52.582;13.406;2022-07-05T05:40:50;2.30;;;1.47;;
37449;SDS011;23309;52.582;13.406;2022-07-05T05:43:16;6.83;;;1.67;;
37449;SDS011;23309;52.582;13.406;2022-07-05T05:45:42;1.60;;;1.50;;
37449;SDS011;23309;52.582;13.406;2022-07-05T05:48:09;5.83;;;1.83;;
37449;SDS011;23309;52.582;13.406;2022-07-05T05:50:35;6.77;;;1.50;;
37449;SDS011;23309;52.582;13.406;2022-07-05T05:53:03;1.47;;;1.27;;
37449;SDS011;23309;52.582;13.406;2022-07-05T05:55:31;2.57;;;1.50;;
37449;SDS011;23309;52.582;13.406;2022-07-05T05:58:12;3.37;;;1.63;;
37449;SDS011;23309;52.582;13.406;2022-07-05T06:00:40;8.10;;;1.60;;
37449;SDS011;23309;52.582;13.406;2022-07-05T06:03:06;4.83;;;1.60;;
37449;SDS011;23309;52.582;13.406;2022-07-05T06:05:32;6.70;;;1.40;;
37449;SDS011;23309;52.582;13.406;2022-07-05T06:07:58;3.43;;;1.70;;
37449;SDS011;23309;52.582;13.406;2022-07-05T06:10:25;4.30;;;1.50;;
37449;SDS011;23309;52.582;13.406;2022-07-05T06:12:54;2.80;;;1.40;;
37449;SDS011;23309;52.582;13.406;2022-07-05T06:15:26;5.67;;;1.40;;
37449;SDS011;23309;52.582;13.406;2022-07-05T06:17:53;2.03;;;1.37;;
37449;SDS011;23309;52.582;13.406;2022-07-05T06:20:20;3.10;;;1.30;;
37449;SDS011;23309;52.582;13.406;2022-07-05T06:22:49;2.93;;;1.50;;
37449;SDS011;23309;52.582;13.406;2022-07-05T06:25:16;4.30;;;1.87;;
37449;SDS011;23309;52.582;13.406;2022-07-05T06:27:43;2.37;;;1.30;;
37449;SDS011;23309;52.582;13.406;2022-07-05T06:30:13;3.07;;;1.50;;
37449;SDS011;23309;52.582;13.406;2022-07-05T06:32:44;2.93;;;1.40;;
37449;SDS011;23309;52.582;13.406;2022-07-05T06:35:12;4.00;;;1.57;;
37449;SDS011;23309;52.582;13.406;2022-07-05T06:37:40;2.13;;;1.40;;
37449;SDS011;23309;52.582;13.406;2022-07-05T06:40:08;2.97;;;1.50;;
37449;SDS011;23309;52.582;13.406;2022-07-05T06:42:35;3.60;;;1.80;;
37449;SDS011;23309;52.582;13.406;2022-07-05T06:45:02;3.00;;;1.37;;
37449;SDS011;23309;52.582;13.406;2022-07-05T06:47:29;6.60;;;1.73;;
37449;SDS011;23309;52.582;13.406;2022-07-05T06:49:59;3.47;;;1.90;;
37449;SDS011;23309;52.582;13.406;2022-07-05T06:52:25;8.30;;;1.87;;
37449;SDS011;23309;52.582;13.406;2022-07-05T06:54:52;3.13;;;1.70;;
37449;SDS011;23309;52.582;13.406;2022-07-05T06:57:18;3.50;;;1.60;;
37449;SDS011;23309;52.582;13.406;2022-07-05T06:59:45;5.33;;;1.63;;
37449;SDS011;23309;52.582;13.406;2022-07-05T07:02:11;2.77;;;1.70;;
37449;SDS011;23309;52.582;13.406;2022-07-05T07:04:37;4.60;;;1.80;;
37449;SDS011;23309;52.582;13.406;2022-07-05T07:07:06;9.93;;;1.80;;
37449;SDS011;23309;52.582;13.406;2022-07-05T07:09:32;4.57;;;1.50;;
37449;SDS011;23309;52.582;13.406;2022-07-05T07:11:58;12.57;;;3.10;;
37449;SDS011;23309;52.582;13.406;2022-07-05T07:14:25;4.57;;;2.80;;
37449;SDS011;23309;52.582;13.406;2022-07-05T07:16:51;11.00;;;3.40;;
37449;SDS011;23309;52.582;13.406;2022-07-05T07:19:17;4.53;;;2.20;;
37449;SDS011;23309;52.582;13.406;2022-07-05T07:21:43;3.83;;;1.80;;
37449;SDS011;23309;52.582;13.406;2022-07-05T07:24:12;4.80;;;1.83;;
37449;SDS011;23309;52.582;13.406;2022-07-05T07:26:38;6.20;;;2.37;;
37449;SDS011;23309;52.582;13.406;2022-07-05T07:29:04;7.30;;;1.90;;
37449;SDS011;23309;52.582;13.406;2022-07-05T07:31:30;4.73;;;1.80;;
37449;SDS011;23309;52.582;13.406;2022-07-05T07:33:56;7.10;;;2.13;;
37449;SDS011;23309;52.582;13.406;2022-07-05T07:36:23;7.13;;;2.27;;
37449;SDS011;23309;52.582;13.406;2022-07-05T07:38:49;2.53;;;1.70;;
37449;SDS011;23309;52.582;13.406;2022-07-05T07:41:18;9.77;;;1.90;;
37449;SDS011;23309;52.582;13.406;2022-07-05T07:43:44;2.97;;;2.00;;
37449;SDS011;23309;52.582;13.406;2022-07-05T07:46:10;4.33;;;1.90;;
37449;SDS011;23309;52.582;13.406;2022-07-05T07:48:36;4.40;;;1.93;;
37449;SDS011;23309;52.582;13.406;2022-07-05T07:51:02;14.47;;;1.97;;
37449;SDS011;23309;52.582;13.406;2022-07-05T07:53:29;3.37;;;1.70;;
37449;SDS011;23309;52.582;13.406;2022-07-05T07:55:55;4.20;;;1.80;;
37449;SDS011;23309;52.582;13.406;2022-07-05T07:58:24;2.60;;;1.60;;
37449;SDS011;23309;52.582;13.406;2022-07-05T08:00:50;5.37;;;2.17;;
37449;SDS011;23309;52.582;13.406;2022-07-05T08:03:16;8.33;;;1.60;;
37449;SDS011;23309;52.582;13.406;2022-07-05T08:05:42;3.83;;;1.83;;
37449;SDS011;23309;52.582;13.406;2022-07-05T08:08:08;6.57;;;2.10;;
37449;SDS011;23309;52.582;13.406;2022-07-05T08:10:34;2.53;;;2.10;;
37449;SDS011;23309;52.582;13.406;2022-07-05T08:13:00;1.67;;;1.53;;
37449;SDS011;23309;52.582;13.406;2022-07-05T08:15:29;5.27;;;2.10;;
37449;SDS011;23309;52.582;13.406;2022-07-05T08:17:55;3.00;;;1.70;;
37449;SDS011;23309;52.582;13.406;2022-07-05T08:20:22;2.80;;;1.83;;
37449;SDS011;23309;52.582;13.406;2022-07-05T08:22:49;5.20;;;1.97;;
37449;SDS011;23309;52.582;13.406;2022-07-05T08:25:15;8.50;;;1.90;;
37449;SDS011;23309;52.582;13.406;2022-07-05T08:27:41;5.03;;;1.80;;
37449;SDS011;23309;52.582;13.406;2022-07-05T08:30:08;4.43;;;1.90;;
37449;SDS011;23309;52.582;13.406;2022-07-05T08:32:38;4.10;;;1.80;;
37449;SDS011;23309;52.582;13.406;2022-07-05T08:35:05;4.87;;;1.87;;
37449;SDS011;23309;52.582;13.406;2022-07-05T08:37:32;6.13;;;1.70;;
37449;SDS011;23309;52.582;13.406;2022-07-05T08:39:58;2.40;;;1.63;;
37449;SDS011;23309;52.582;13.406;2022-07-05T08:42:24;2.73;;;1.80;;
37449;SDS011;23309;52.582;13.406;2022-07-05T08:44:52;10.33;;;2.17;;
37449;SDS011;23309;52.582;13.406;2022-07-05T08:47:20;10.47;;;1.97;;
37449;SDS011;23309;52.582;13.406;2022-07-05T08:49:50;17.53;;;1.97;;
37449;SDS011;23309;52.582;13.406;2022-07-05T08:52:18;4.37;;;1.60;;
37449;SDS011;23309;52.582;13.406;2022-07-05T08:54:46;5.50;;;2.00;;
37449;SDS011;23309;52.582;13.406;2022-07-05T08:57:12;2.27;;;1.80;;
37449;SDS011;23309;52.582;13.406;2022-07-05T08:59:38;1.90;;;1.60;;
37449;SDS011;23309;52.582;13.406;2022-07-05T09:02:04;3.00;;;2.00;;
37449;SDS011;23309;52.582;13.406;2022-07-05T09:04:36;3.57;;;2.10;;
37449;SDS011;23309;52.582;13.406;2022-07-05T09:07:10;9.70;;;1.97;;
37449;SDS011;23309;52.582;13.406;2022-07-05T09:09:40;3.70;;;2.00;;
37449;SDS011;23309;52.582;13.406;2022-07-05T09:12:08;4.53;;;1.83;;
37449;SDS011;23309;52.582;13.406;2022-07-05T09:14:37;2.60;;;2.23;;
37449;SDS011;23309;52.582;13.406;2022-07-05T09:17:03;5.10;;;1.87;;
37449;SDS011;23309;52.582;13.406;2022-07-05T09:19:30;4.30;;;1.90;;
37449;SDS011;23309;52.582;13.406;2022-07-05T09:22:00;4.30;;;2.00;;
37449;SDS011;23309;52.582;13.406;2022-07-05T09:24:30;3.17;;;1.97;;
37449;SDS011;23309;52.582;13.406;2022-07-05T09:27:04;8.23;;;2.07;;
37449;SDS011;23309;52.582;13.406;2022-07-05T09:29:31;5.10;;;1.90;;
37449;SDS011;23309;52.582;13.406;2022-07-05T09:31:57;3.20;;;1.70;;
37449;SDS011;23309;52.582;13.406;2022-07-05T09:34:23;3.47;;;2.17;;
37449;SDS011;23309;52.582;13.406;2022-07-05T09:36:50;3.60;;;2.07;;
37449;SDS011;23309;52.582;13.406;2022-07-05T09:39:18;3.00;;;1.70;;
37449;SDS011;23309;52.582;13.406;2022-07-05T09:42:11;1.80;;;1.60;;
37449;SDS011;23309;52.582;13.406;2022-07-05T09:44:41;3.07;;;1.70;;
37449;SDS011;23309;52.582;13.406;2022-07-05T09:47:08;6.00;;;2.07;;
37449;SDS011;23309;52.582;13.406;2022-07-05T09:49:35;7.03;;;2.13;;
37449;SDS011;23309;52.582;13.406;2022-07-05T09:52:03;3.20;;;1.73;;
37449;SDS011;23309;52.582;13.406;2022-07-05T09:54:30;5.80;;;1.80;;
37449;SDS011;23309;52.582;13.406;2022-07-05T09:56:59;3.17;;;2.00;;
37449;SDS011;23309;52.582;13.406;2022-07-05T09:59:25;6.10;;;1.87;;
37449;SDS011;23309;52.582;13.406;2022-07-05T10:01:51;4.00;;;2.03;;
37449;SDS011;23309;52.582;13.406;2022-07-05T10:04:18;5.67;;;1.80;;
37449;SDS011;23309;52.582;13.406;2022-07-05T10:06:44;3.50;;;1.87;;
37449;SDS011;23309;52.582;13.406;2022-07-05T10:09:10;4.47;;;1.83;;
37449;SDS011;23309;52.582;13.406;2022-07-05T10:11:38;7.87;;;3.03;;
37449;SDS011;23309;52.582;13.406;2022-07-05T10:14:11;2.60;;;1.70;;
37449;SDS011;23309;52.582;13.406;2022-07-05T10:16:41;5.20;;;2.03;;
37449;SDS011;23309;52.582;13.406;2022-07-05T10:19:12;5.70;;;2.37;;
37449;SDS011;23309;52.582;13.406;2022-07-05T10:21:43;4.80;;;2.00;;
37449;SDS011;23309;52.582;13.406;2022-07-05T10:24:10;3.43;;;2.10;;
37449;SDS011;23309;52.582;13.406;2022-07-05T10:26:38;3.37;;;1.93;;
37449;SDS011;23309;52.582;13.406;2022-07-05T10:29:05;3.70;;;1.90;;
37449;SDS011;23309;52.582;13.406;2022-07-05T10:31:35;2.90;;;1.97;;
37449;SDS011;23309;52.582;13.406;2022-07-05T10:34:01;5.10;;;2.10;;
37449;SDS011;23309;52.582;13.406;2022-07-05T10:36:28;2.20;;;1.87;;
37449;SDS011;23309;52.582;13.406;2022-07-05T10:38:54;6.53;;;2.10;;
37449;SDS011;23309;52.582;13.406;2022-07-05T10:41:22;3.80;;;2.03;;
37449;SDS011;23309;52.582;13.406;2022-07-05T10:43:52;4.30;;;2.00;;
37449;SDS011;23309;52.582;13.406;2022-07-05T10:46:19;11.20;;;2.10;;
37449;SDS011;23309;52.582;13.406;2022-07-05T10:49:12;3.00;;;1.60;;
37449;SDS011;23309;52.582;13.406;2022-07-05T10:51:40;3.00;;;1.77;;
37449;SDS011;23309;52.582;13.406;2022-07-05T10:54:07;3.33;;;1.90;;
37449;SDS011;23309;52.582;13.406;2022-07-05T10:56:34;5.07;;;1.60;;
37449;SDS011;23309;52.582;13.406;2022-07-05T10:59:04;2.07;;;1.70;;
37449;SDS011;23309;52.582;13.406;2022-07-05T11:01:38;2.97;;;1.90;;
37449;SDS011;23309;52.582;13.406;2022-07-05T11:06:54;3.80;;;1.63;;
37449;SDS011;23309;52.582;13.406;2022-07-05T11:09:21;2.47;;;1.73;;
37449;SDS011;23309;52.582;13.406;2022-07-05T11:11:49;3.20;;;1.90;;
37449;SDS011;23309;52.582;13.406;2022-07-05T11:14:36;3.90;;;2.07;;
37449;SDS011;23309;52.582;13.406;2022-07-05T11:17:19;4.50;;;1.93;;
37449;SDS011;23309;52.582;13.406;2022-07-05T11:19:59;4.00;;;1.67;;
37449;SDS011;23309;52.582;13.406;2022-07-05T11:22:40;6.33;;;2.00;;
37449;SDS011;23309;52.582;13.406;2022-07-05T11:25:25;3.33;;;1.70;;
37449;SDS011;23309;52.582;13.406;2022-07-05T11:28:03;4.20;;;1.50;;
37449;SDS011;23309;52.582;13.406;2022-07-05T11:30:48;5.20;;;1.70;;
37449;SDS011;23309;52.582;13.406;2022-07-05T11:36:20;2.80;;;1.77;;
37449;SDS011;23309;52.582;13.406;2022-07-05T11:41:36;3.33;;;1.50;;
37449;SDS011;23309;52.582;13.406;2022-07-05T11:44:03;4.73;;;1.90;;
37449;SDS011;23309;52.582;13.406;2022-07-05T11:46:32;3.43;;;2.00;;
37449;SDS011;23309;52.582;13.406;2022-07-05T11:49:02;2.60;;;1.80;;
37449;SDS011;23309;52.582;13.406;2022-07-05T11:51:29;2.33;;;1.47;;
37449;SDS011;23309;52.582;13.406;2022-07-05T11:53:56;2.80;;;1.90;;
37449;SDS011;23309;52.582;13.406;2022-07-05T11:56:22;2.50;;;1.63;;
37449;SDS011;23309;52.582;13.406;2022-07-05T11:58:48;2.30;;;1.70;;
37449;SDS011;23309;52.582;13.406;2022-07-05T12:01:15;2.30;;;1.50;;
37449;SDS011;23309;52.582;13.406;2022-07-05T12:03:41;2.80;;;1.70;;
37449;SDS011;23309;52.582;13.406;2022-07-05T12:06:21;2.70;;;1.63;;
37449;SDS011;23309;52.582;13.406;2022-07-05T12:08:48;3.33;;;1.53;;
37449;SDS011;23309;52.582;13.406;2022-07-05T12:11:27;2.30;;;1.60;;
37449;SDS011;23309;52.582;13.406;2022-07-05T12:13:54;6.03;;;2.00;;
37449;SDS011;23309;52.582;13.406;2022-07-05T12:16:20;2.87;;;1.80;;
37449;SDS011;23309;52.582;13.406;2022-07-05T12:18:47;2.20;;;1.67;;
37449;SDS011;23309;52.582;13.406;2022-07-05T12:21:20;2.37;;;1.93;;
37449;SDS011;23309;52.582;13.406;2022-07-05T12:23:48;3.67;;;1.70;;
37449;SDS011;23309;52.582;13.406;2022-07-05T12:26:17;4.13;;;1.70;;
37449;SDS011;23309;52.582;13.406;2022-07-05T12:28:51;3.33;;;1.50;;
37449;SDS011;23309;52.582;13.406;2022-07-05T12:31:18;2.27;;;1.50;;
37449;SDS011;23309;52.582;13.406;2022-07-05T12:33:46;9.70;;;2.07;;
37449;SDS011;23309;52.582;13.406;2022-07-05T12:36:13;2.97;;;1.80;;
37449;SDS011;23309;52.582;13.406;2022-07-05T12:38:43;4.17;;;1.70;;
37449;SDS011;23309;52.582;13.406;2022-07-05T12:41:10;5.07;;;1.73;;
37449;SDS011;23309;52.582;13.406;2022-07-05T12:43:49;6.00;;;1.60;;
37449;SDS011;23309;52.582;13.406;2022-07-05T12:46:17;1.77;;;1.67;;
37449;SDS011;23309;52.582;13.406;2022-07-05T12:48:43;8.97;;;1.87;;
37449;SDS011;23309;52.582;13.406;2022-07-05T12:51:15;4.63;;;1.90;;
37449;SDS011;23309;52.582;13.406;2022-07-05T12:54:04;4.23;;;1.90;;
37449;SDS011;23309;52.582;13.406;2022-07-05T12:56:47;5.03;;;1.77;;
37449;SDS011;23309;52.582;13.406;2022-07-05T12:59:15;4.40;;;1.93;;
37449;SDS011;23309;52.582;13.406;2022-07-05T13:01:42;2.03;;;1.70;;
37449;SDS011;23309;52.582;13.406;2022-07-05T13:04:12;3.13;;;1.60;;
37449;SDS011;23309;52.582;13.406;2022-07-05T13:06:41;3.70;;;1.90;;
37449;SDS011;23309;52.582;13.406;2022-07-05T13:09:13;2.87;;;1.70;;
37449;SDS011;23309;52.582;13.406;2022-07-05T13:11:41;2.43;;;1.57;;
37449;SDS011;23309;52.582;13.406;2022-07-05T13:14:08;2.33;;;1.50;;
37449;SDS011;23309;52.582;13.406;2022-07-05T13:16:34;3.53;;;1.70;;
37449;SDS011;23309;52.582;13.406;2022-07-05T13:19:07;3.87;;;1.67;;
37449;SDS011;23309;52.582;13.406;2022-07-05T13:21:34;3.33;;;1.80;;
37449;SDS011;23309;52.582;13.406;2022-07-05T13:24:01;2.37;;;1.50;;
37449;SDS011;23309;52.582;13.406;2022-07-05T13:26:30;5.30;;;1.77;;
37449;SDS011;23309;52.582;13.406;2022-07-05T13:28:57;9.00;;;1.63;;
37449;SDS011;23309;52.582;13.406;2022-07-05T13:31:23;4.57;;;1.60;;
37449;SDS011;23309;52.582;13.406;2022-07-05T13:33:49;4.23;;;1.60;;
37449;SDS011;23309;52.582;13.406;2022-07-05T13:36:15;4.13;;;1.57;;
37449;SDS011;23309;52.582;13.406;2022-07-05T13:38:41;2.63;;;1.70;;
37449;SDS011;23309;52.582;13.406;2022-07-05T13:41:07;2.43;;;1.80;;
37449;SDS011;23309;52.582;13.406;2022-07-05T13:43:37;2.40;;;1.70;;
37449;SDS011;23309;52.582;13.406;2022-07-05T13:46:03;2.93;;;1.73;;
37449;SDS011;23309;52.582;13.406;2022-07-05T13:48:29;1.97;;;1.77;;
37449;SDS011;23309;52.582;13.406;2022-07-05T13:50:55;2.90;;;1.90;;
37449;SDS011;23309;52.582;13.406;2022-07-05T13:53:21;3.70;;;1.80;;
37449;SDS011;23309;52.582;13.406;2022-07-05T13:55:48;5.00;;;2.13;;
37449;SDS011;23309;52.582;13.406;2022-07-05T13:58:14;2.60;;;1.67;;
37449;SDS011;23309;52.582;13.406;2022-07-05T14:00:43;1.93;;;1.60;;
37449;SDS011;23309;52.582;13.406;2022-07-05T14:03:09;3.23;;;1.90;;
37449;SDS011;23309;52.582;13.406;2022-07-05T14:05:36;2.17;;;1.60;;
37449;SDS011;23309;52.582;13.406;2022-07-05T14:08:02;2.77;;;1.70;;
37449;SDS011;23309;52.582;13.406;2022-07-05T14:10:29;4.70;;;2.00;;
37449;SDS011;23309;52.582;13.406;2022-07-05T14:12:55;4.30;;;1.73;;
37449;SDS011;23309;52.582;13.406;2022-07-05T14:15:21;3.50;;;1.60;;
37449;SDS011;23309;52.582;13.406;2022-07-05T14:17:50;6.03;;;1.70;;
37449;SDS011;23309;52.582;13.406;2022-07-05T14:20:17;2.03;;;1.83;;
37449;SDS011;23309;52.582;13.406;2022-07-05T14:22:44;2.40;;;1.57;;
37449;SDS011;23309;52.582;13.406;2022-07-05T14:25:11;3.07;;;1.83;;
37449;SDS011;23309;52.582;13.406;2022-07-05T14:27:37;2.63;;;1.90;;
37449;SDS011;23309;52.582;13.406;2022-07-05T14:30:03;2.90;;;1.93;;
37449;SDS011;23309;52.582;13.406;2022-07-05T14:32:31;3.13;;;1.90;;
37449;SDS011;23309;52.582;13.406;2022-07-05T14:35:00;1.77;;;1.53;;
37449;SDS011;23309;52.582;13.406;2022-07-05T14:37:26;1.90;;;1.70;;
37449;SDS011;23309;52.582;13.406;2022-07-05T14:39:52;5.93;;;1.60;;
37449;SDS011;23309;52.582;13.406;2022-07-05T14:42:18;6.00;;;1.60;;
37449;SDS011;23309;52.582;13.406;2022-07-05T14:44:45;3.30;;;1.70;;